Terminal Aerodrome Forecast
Issued by NWS

Home | Current Version | Previous Version | Text Only | Print | Product List | Glossary On
Versions: 1 2 3 4 5 6 7 8 9 10 11 12 13 14 15 16 17 18 19 20 21 22 23 24 25 26 27 28 29 30 31 32 33 34 35 36 37 38 39 40 41 42 43 44 45 46 47 48
234
FTAK31 PANC 071739
TAFADQ
TAF
PADQ 071739Z 0718/0818 30015G25KT 5SM -SHSN SCT020 OVC035
      TEMPO 0718/0720 2SM -SHSN BR SCT008 OVC015
     FM072000 35017G27KT 3SM -SHSN SCT008 OVC015
     FM080600 35015G25KT 2SM -SN BKN008 OVC012
     FM081600 30010KT 5SM -SHSN SCT010 BKN020=

USA.gov is the U.S. government's official web portal to all federal, state and local government web resources and services.